Federal Barents — V7FY7 — position and weather

sailwx.info

Track history (hours):
 
Tides and Currents Weather Stations Pressure Air Temp Water Temp Dewpoint Dewpoint Depression Visibility Wind Speed Wind Dir Waves Ship Positions

Federal Barents

Last reported at 2018-Jul-05 10:52 UTC. Time now 2018-Jul-19 09:43 UTC.
Position N 46°50' W 071°10'.
Warning: this ship's position is 13 days out of date.

Length 200 m; draft 8.1 m.

Type: Cargo ship. MMSI: 538006419.

Date/timePositionNaut miles runAvg speedWind from/ knotsBaromVisibWave heightAir tempDewpointWater temp
2018-Jul-05 10:52N 46°50' W 071°10'9112.0
2018-Jul-05 03:17N 46°04' W 073°03'312.1
2018-Jul-05 03:00N 46°03' W 073°08'611.4
2018-Jul-05 02:30N 45°58' W 073°12'612.8
2018-Jul-05 02:00N 45°52' W 073°16'713.2
2018-Jul-05 01:30N 45°47' W 073°21'713.3
2018-Jul-05 01:00N 45°42' W 073°27'5 9.7
2018-Jul-05 00:29N 45°37' W 073°30'0 0.0
2018-Jul-04 10:07N 45°37' W 073°30'0 2.6
2018-Jul-04 10:00N 45°37' W 073°30'5 8.8
2018-Jul-04 09:27N 45°32' W 073°32'2 5.6
2018-Jul-04 09:00N 45°30' W 073°31'0 0.4
2018-Jul-04 08:31N 45°30' W 073°31'2 3.2
2018-Jul-04 08:01N 45°28' W 073°30'3 6.2
2018-Jul-04 07:31N 45°25' W 073°31'2 4.5
2018-Jul-04 07:01N 45°24' W 073°34'0 0.5
2018-Jul-04 06:31N 45°24' W 073°34'1 2.6
2018-Jul-04 06:00N 45°24' W 073°36'3 5.4
2018-Jul-04 05:30N 45°25' W 073°40'4 7.2
2018-Jul-04 05:00N 45°24' W 073°45'611.8
2018-Jul-04 04:30N 45°21' W 073°52'3 6.0
2018-Jul-04 04:00N 45°19' W 073°55'0 0.9
2018-Jul-04 03:30N 45°19' W 073°55'0 0.8
2018-Jul-04 03:00N 45°18' W 073°56'1 2.2
2018-Jul-04 02:30N 45°17' W 073°56'4 8.8
2018-Jul-04 02:00N 45°14' W 074°00'5 9.7
2018-Jul-04 01:30N 45°14' W 074°07'611.2
2018-Jul-04 01:00N 45°13' W 074°15'612.3
2018-Jul-04 00:30N 45°09' W 074°22'  
2018-Jul-01 00:07N 45°56' W 083°53'110.0
2018-Jul-01 00:00N 45°57' W 083°54'20 9.4
2018-Jun-30 21:52N 46°14' W 084°10'  
2018-Jun-27 01:07N 46°24' W 084°14'8 8.5
2018-Jun-27 00:13N 46°18' W 084°07'2 7.5
2018-Jun-26 23:54N 46°15' W 084°06'3 8.1
2018-Jun-26 23:30N 46°12' W 084°07'612.0
2018-Jun-26 22:58N 46°08' W 084°01'611.0
2018-Jun-26 22:26N 46°03' W 083°56'410.2
2018-Jun-26 22:00N 45°59' W 083°54'510.0
2018-Jun-26 21:30N 45°55' W 083°59'713.7
2018-Jun-26 21:00N 45°53' W 084°08'713.4
2018-Jun-26 20:30N 45°52' W 084°17'713.5
2018-Jun-26 20:00N 45°51' W 084°27'713.4
2018-Jun-26 19:30N 45°51' W 084°37'612.7
2018-Jun-26 19:00N 45°49' W 084°45'713.4
2018-Jun-26 18:30N 45°50' W 084°55'713.9
2018-Jun-26 18:00N 45°50' W 085°05'510.1
2018-Jun-26 17:30N 45°46' W 085°09'612.9
2018-Jun-26 17:00N 45°41' W 085°14'1413.7
2018-Jun-26 16:00N 45°29' W 085°26'713.8
2018-Jun-26 15:30N 45°24' W 085°31'714.0
2018-Jun-26 15:00N 45°18' W 085°38'714.1
2018-Jun-26 14:30N 45°13' W 085°44'1714.0
2018-Jun-26 13:17N 44°60' W 085°59'414.1
2018-Jun-26 12:58N 44°58' W 086°05'813.6
2018-Jun-26 12:25N 44°53' W 086°13'  
Track history (hours):
 
Tides and Currents Weather Stations Pressure Air Temp Water Temp Dewpoint Dewpoint Depression Visibility Wind Speed Wind Dir Waves Ship Positions

Federal Barents

Last reported at 2018-Jul-05 10:52 UTC. Time now 2018-Jul-19 09:43 UTC.
Position N 46°50' W 071°10'.
Warning: this ship's position is 13 days out of date.

Length 200 m; draft 8.1 m.

Type: Cargo ship. MMSI: 538006419.

Date/timePositionNaut miles runAvg speedWind from/ knotsBaromVisibWave heightAir tempDewpointWater temp
2018-Jul-05 10:52N 46°50' W 071°10'9112.0
2018-Jul-05 03:17N 46°04' W 073°03'312.1
2018-Jul-05 03:00N 46°03' W 073°08'611.4
2018-Jul-05 02:30N 45°58' W 073°12'612.8
2018-Jul-05 02:00N 45°52' W 073°16'713.2
2018-Jul-05 01:30N 45°47' W 073°21'713.3
2018-Jul-05 01:00N 45°42' W 073°27'5 9.7
2018-Jul-05 00:29N 45°37' W 073°30'0 0.0
2018-Jul-04 10:07N 45°37' W 073°30'0 2.6
2018-Jul-04 10:00N 45°37' W 073°30'5 8.8
2018-Jul-04 09:27N 45°32' W 073°32'2 5.6
2018-Jul-04 09:00N 45°30' W 073°31'0 0.4
2018-Jul-04 08:31N 45°30' W 073°31'2 3.2
2018-Jul-04 08:01N 45°28' W 073°30'3 6.2
2018-Jul-04 07:31N 45°25' W 073°31'2 4.5
2018-Jul-04 07:01N 45°24' W 073°34'0 0.5
2018-Jul-04 06:31N 45°24' W 073°34'1 2.6
2018-Jul-04 06:00N 45°24' W 073°36'3 5.4
2018-Jul-04 05:30N 45°25' W 073°40'4 7.2
2018-Jul-04 05:00N 45°24' W 073°45'611.8
2018-Jul-04 04:30N 45°21' W 073°52'3 6.0
2018-Jul-04 04:00N 45°19' W 073°55'0 0.9
2018-Jul-04 03:30N 45°19' W 073°55'0 0.8
2018-Jul-04 03:00N 45°18' W 073°56'1 2.2
2018-Jul-04 02:30N 45°17' W 073°56'4 8.8
2018-Jul-04 02:00N 45°14' W 074°00'5 9.7
2018-Jul-04 01:30N 45°14' W 074°07'611.2
2018-Jul-04 01:00N 45°13' W 074°15'612.3
2018-Jul-04 00:30N 45°09' W 074°22'  
2018-Jul-01 00:07N 45°56' W 083°53'110.0
2018-Jul-01 00:00N 45°57' W 083°54'20 9.4
2018-Jun-30 21:52N 46°14' W 084°10'  
2018-Jun-27 01:07N 46°24' W 084°14'8 8.5
2018-Jun-27 00:13N 46°18' W 084°07'2 7.5
2018-Jun-26 23:54N 46°15' W 084°06'3 8.1
2018-Jun-26 23:30N 46°12' W 084°07'612.0
2018-Jun-26 22:58N 46°08' W 084°01'611.0
2018-Jun-26 22:26N 46°03' W 083°56'410.2
2018-Jun-26 22:00N 45°59' W 083°54'510.0
2018-Jun-26 21:30N 45°55' W 083°59'713.7
2018-Jun-26 21:00N 45°53' W 084°08'713.4
2018-Jun-26 20:30N 45°52' W 084°17'713.5
2018-Jun-26 20:00N 45°51' W 084°27'713.4
2018-Jun-26 19:30N 45°51' W 084°37'612.7
2018-Jun-26 19:00N 45°49' W 084°45'713.4
2018-Jun-26 18:30N 45°50' W 084°55'713.9
2018-Jun-26 18:00N 45°50' W 085°05'510.1
2018-Jun-26 17:30N 45°46' W 085°09'612.9
2018-Jun-26 17:00N 45°41' W 085°14'1413.7
2018-Jun-26 16:00N 45°29' W 085°26'713.8
2018-Jun-26 15:30N 45°24' W 085°31'714.0
2018-Jun-26 15:00N 45°18' W 085°38'714.1
2018-Jun-26 14:30N 45°13' W 085°44'1714.0
2018-Jun-26 13:17N 44°60' W 085°59'414.1
2018-Jun-26 12:58N 44°58' W 086°05'813.6
2018-Jun-26 12:25N 44°53' W 086°13'  

Dump ship's entire track history